首页
METAR-TAF:

METAR-TAF

机场 :

邁亞密國際機場

迈阿密, 佛罗里达州, 美国

纬度: 25-47-26N, 经度: 080-18-59W, 海拔: 3米

当前天气观测

该预报发布于1小时和1分钟前的05:53 UTC
风速3节,风向
温度 28°C
湿度 79%
气压 1019 hPa
能見度: 16.1公里
少量云层高于25000英尺

METAR: KMIA 180553Z 18003KT 10SM FEW250 28/24 A3008 RMK AO2 SLP186 T02830244 10294 20278 58006 $

时间: 02:54 (06:54 UTC)

预报

该预报发布于1小时和13分钟前的05:41 UTC
预报有效从18日的 06点(UTC)到 19日的 12点(UTC)
风速4节,风向多变
能見度: 10公里
少量云层高于4000英尺
少量云层高于25000英尺
从 18日的 1800点(UTC)
风速3节,风向南转西南
能見度: 10公里
散云层高于3000英尺, 积雨云.
散云层高于5000英尺
散云层高于25000英尺
附近有雷暴
从 18日的 2000点(UTC)
风速8节,风向
能見度: 10公里
少量云层高于3000英尺
散云层高于6000英尺
从 19日的 0000点(UTC)
风速3节,风向南转西南
能見度: 10公里
少量云层高于20000英尺

TAF: KMIA 180541Z 1806/1912 VRB04KT P6SM FEW040 FEW250 FM181800 20003KT P6SM VCTS SCT030CB SCT050 SCT250 FM182000 19008KT P6SM FEW030 SCT060 FM190000 20003KT P6SM FEW200

超过4000个机场的气象观测和天气预报(METAR&TAF报告)。

可查询的气象台以黄色和红色小点在地图上表示。

将鼠标移到小点上方,可查看气象台名称。

然后点击查看天气观测和预报。

如需切换地图:点击带黑十字的绿色按钮放大地图;点击带横线的绿色按钮缩小地图;或者点击绿色箭头查看邻近地区的地图。


METAR-TAF: